sensor_id;sensor_type;location;lat;lon;timestamp;P1;durP1;ratioP1;P2;durP2;ratioP2
6378;SDS011;3222;48.858;10.128;2022-12-16T00:01:01;27.20;;;14.60;;
6378;SDS011;3222;48.858;10.128;2022-12-16T00:03:34;23.43;;;14.40;;
6378;SDS011;3222;48.858;10.128;2022-12-16T00:05:59;27.00;;;14.07;;
6378;SDS011;3222;48.858;10.128;2022-12-16T00:08:28;21.87;;;14.17;;
6378;SDS011;3222;48.858;10.128;2022-12-16T00:10:59;22.80;;;13.90;;
6378;SDS011;3222;48.858;10.128;2022-12-16T00:13:25;24.47;;;14.67;;
6378;SDS011;3222;48.858;10.128;2022-12-16T00:15:52;25.13;;;14.60;;
6378;SDS011;3222;48.858;10.128;2022-12-16T00:18:18;27.00;;;14.63;;
6378;SDS011;3222;48.858;10.128;2022-12-16T00:20:48;23.57;;;14.47;;
6378;SDS011;3222;48.858;10.128;2022-12-16T00:23:16;20.10;;;13.13;;
6378;SDS011;3222;48.858;10.128;2022-12-16T00:25:42;20.07;;;13.00;;
6378;SDS011;3222;48.858;10.128;2022-12-16T00:28:10;24.00;;;14.93;;
6378;SDS011;3222;48.858;10.128;2022-12-16T00:30:37;24.83;;;14.37;;
6378;SDS011;3222;48.858;10.128;2022-12-16T00:33:03;23.60;;;14.27;;
6378;SDS011;3222;48.858;10.128;2022-12-16T00:35:29;21.07;;;12.43;;
6378;SDS011;3222;48.858;10.128;2022-12-16T00:37:55;19.67;;;13.27;;
6378;SDS011;3222;48.858;10.128;2022-12-16T00:40:21;23.73;;;13.53;;
6378;SDS011;3222;48.858;10.128;2022-12-16T00:42:47;22.70;;;13.67;;
6378;SDS011;3222;48.858;10.128;2022-12-16T00:45:13;21.00;;;13.07;;
6378;SDS011;3222;48.858;10.128;2022-12-16T00:47:39;24.07;;;14.53;;
6378;SDS011;3222;48.858;10.128;2022-12-16T00:50:05;22.50;;;13.53;;
6378;SDS011;3222;48.858;10.128;2022-12-16T00:52:31;23.27;;;14.43;;
6378;SDS011;3222;48.858;10.128;2022-12-16T00:54:57;22.60;;;14.17;;
6378;SDS011;3222;48.858;10.128;2022-12-16T00:57:22;23.10;;;13.93;;
6378;SDS011;3222;48.858;10.128;2022-12-16T00:59:48;22.57;;;14.30;;
6378;SDS011;3222;48.858;10.128;2022-12-16T01:02:14;20.33;;;12.90;;
6378;SDS011;3222;48.858;10.128;2022-12-16T01:04:40;26.00;;;14.60;;
6378;SDS011;3222;48.858;10.128;2022-12-16T01:07:05;23.00;;;14.90;;
6378;SDS011;3222;48.858;10.128;2022-12-16T01:09:31;26.23;;;14.13;;
6378;SDS011;3222;48.858;10.128;2022-12-16T01:11:58;24.90;;;14.80;;
6378;SDS011;3222;48.858;10.128;2022-12-16T01:14:23;24.90;;;15.17;;
6378;SDS011;3222;48.858;10.128;2022-12-16T01:16:49;22.43;;;14.00;;
6378;SDS011;3222;48.858;10.128;2022-12-16T01:19:15;23.97;;;14.47;;
6378;SDS011;3222;48.858;10.128;2022-12-16T01:21:41;24.30;;;14.10;;
6378;SDS011;3222;48.858;10.128;2022-12-16T01:24:07;20.43;;;13.60;;
6378;SDS011;3222;48.858;10.128;2022-12-16T01:26:34;26.07;;;14.10;;
6378;SDS011;3222;48.858;10.128;2022-12-16T01:29:00;22.07;;;13.93;;
6378;SDS011;3222;48.858;10.128;2022-12-16T01:31:25;25.57;;;15.17;;
6378;SDS011;3222;48.858;10.128;2022-12-16T01:33:51;26.37;;;14.50;;
6378;SDS011;3222;48.858;10.128;2022-12-16T01:36:16;28.33;;;15.20;;
6378;SDS011;3222;48.858;10.128;2022-12-16T01:38:43;24.83;;;15.13;;
6378;SDS011;3222;48.858;10.128;2022-12-16T01:41:09;22.37;;;14.17;;
6378;SDS011;3222;48.858;10.128;2022-12-16T01:43:37;22.43;;;14.47;;
6378;SDS011;3222;48.858;10.128;2022-12-16T01:46:22;24.13;;;15.17;;
6378;SDS011;3222;48.858;10.128;2022-12-16T01:49:00;26.57;;;15.97;;
6378;SDS011;3222;48.858;10.128;2022-12-16T01:51:37;22.50;;;14.43;;
6378;SDS011;3222;48.858;10.128;2022-12-16T01:54:06;27.33;;;15.77;;
6378;SDS011;3222;48.858;10.128;2022-12-16T01:56:33;21.73;;;15.23;;
6378;SDS011;3222;48.858;10.128;2022-12-16T01:59:01;26.60;;;16.63;;
6378;SDS011;3222;48.858;10.128;2022-12-16T02:01:27;25.90;;;15.43;;
6378;SDS011;3222;48.858;10.128;2022-12-16T02:03:54;26.93;;;16.33;;
6378;SDS011;3222;48.858;10.128;2022-12-16T02:06:26;27.23;;;16.33;;
6378;SDS011;3222;48.858;10.128;2022-12-16T02:08:53;26.77;;;16.63;;
6378;SDS011;3222;48.858;10.128;2022-12-16T02:21:58;26.40;;;16.10;;
6378;SDS011;3222;48.858;10.128;2022-12-16T02:30:23;26.00;;;15.70;;
6378;SDS011;3222;48.858;10.128;2022-12-16T02:32:53;28.00;;;16.87;;
6378;SDS011;3222;48.858;10.128;2022-12-16T02:35:34;28.37;;;17.07;;
6378;SDS011;3222;48.858;10.128;2022-12-16T02:46:23;29.60;;;16.40;;
6378;SDS011;3222;48.858;10.128;2022-12-16T02:48:51;28.63;;;16.80;;
6378;SDS011;3222;48.858;10.128;2022-12-16T02:51:17;33.13;;;18.40;;
6378;SDS011;3222;48.858;10.128;2022-12-16T02:53:44;27.23;;;17.13;;
6378;SDS011;3222;48.858;10.128;2022-12-16T02:56:21;27.90;;;16.93;;
6378;SDS011;3222;48.858;10.128;2022-12-16T03:04:10;28.20;;;17.27;;
6378;SDS011;3222;48.858;10.128;2022-12-16T03:06:39;30.50;;;18.50;;
6378;SDS011;3222;48.858;10.128;2022-12-16T03:09:08;32.53;;;19.07;;
6378;SDS011;3222;48.858;10.128;2022-12-16T03:11:37;31.33;;;17.50;;
6378;SDS011;3222;48.858;10.128;2022-12-16T03:14:07;28.93;;;17.83;;
6378;SDS011;3222;48.858;10.128;2022-12-16T03:16:36;30.87;;;18.10;;
6378;SDS011;3222;48.858;10.128;2022-12-16T03:19:03;27.50;;;16.83;;
6378;SDS011;3222;48.858;10.128;2022-12-16T03:21:42;28.20;;;17.93;;
6378;SDS011;3222;48.858;10.128;2022-12-16T03:24:18;27.73;;;17.27;;
6378;SDS011;3222;48.858;10.128;2022-12-16T03:36:52;31.20;;;17.43;;
6378;SDS011;3222;48.858;10.128;2022-12-16T03:39:24;32.20;;;17.57;;
6378;SDS011;3222;48.858;10.128;2022-12-16T03:41:51;29.60;;;17.83;;
6378;SDS011;3222;48.858;10.128;2022-12-16T03:44:19;23.80;;;16.33;;
6378;SDS011;3222;48.858;10.128;2022-12-16T03:46:47;25.13;;;15.33;;
6378;SDS011;3222;48.858;10.128;2022-12-16T03:49:13;27.97;;;17.77;;
6378;SDS011;3222;48.858;10.128;2022-12-16T03:51:38;27.00;;;16.80;;
6378;SDS011;3222;48.858;10.128;2022-12-16T03:54:04;28.70;;;16.77;;
6378;SDS011;3222;48.858;10.128;2022-12-16T03:56:30;26.93;;;16.30;;
6378;SDS011;3222;48.858;10.128;2022-12-16T03:58:56;24.63;;;16.10;;
6378;SDS011;3222;48.858;10.128;2022-12-16T04:01:22;28.50;;;16.87;;
6378;SDS011;3222;48.858;10.128;2022-12-16T04:03:48;31.17;;;16.73;;
6378;SDS011;3222;48.858;10.128;2022-12-16T04:06:14;26.83;;;16.63;;
6378;SDS011;3222;48.858;10.128;2022-12-16T04:08:43;22.87;;;15.07;;
6378;SDS011;3222;48.858;10.128;2022-12-16T04:11:10;26.23;;;16.57;;
6378;SDS011;3222;48.858;10.128;2022-12-16T04:13:55;27.77;;;16.10;;
6378;SDS011;3222;48.858;10.128;2022-12-16T04:16:39;26.13;;;16.93;;
6378;SDS011;3222;48.858;10.128;2022-12-16T04:19:25;24.83;;;16.50;;
6378;SDS011;3222;48.858;10.128;2022-12-16T04:22:13;26.73;;;16.50;;
6378;SDS011;3222;48.858;10.128;2022-12-16T04:25:08;28.47;;;16.93;;
6378;SDS011;3222;48.858;10.128;2022-12-16T04:27:37;30.47;;;16.80;;
6378;SDS011;3222;48.858;10.128;2022-12-16T04:30:03;29.57;;;17.13;;
6378;SDS011;3222;48.858;10.128;2022-12-16T04:32:45;26.00;;;16.77;;
6378;SDS011;3222;48.858;10.128;2022-12-16T04:35:35;27.17;;;16.83;;
6378;SDS011;3222;48.858;10.128;2022-12-16T04:38:20;26.80;;;17.10;;
6378;SDS011;3222;48.858;10.128;2022-12-16T04:41:04;28.50;;;17.37;;
6378;SDS011;3222;48.858;10.128;2022-12-16T04:43:48;25.73;;;16.50;;
6378;SDS011;3222;48.858;10.128;2022-12-16T04:46:33;29.67;;;17.47;;
6378;SDS011;3222;48.858;10.128;2022-12-16T04:49:17;29.63;;;17.67;;
6378;SDS011;3222;48.858;10.128;2022-12-16T04:52:02;27.17;;;17.50;;
6378;SDS011;3222;48.858;10.128;2022-12-16T04:54:47;28.80;;;16.77;;
6378;SDS011;3222;48.858;10.128;2022-12-16T04:57:31;25.10;;;16.27;;
6378;SDS011;3222;48.858;10.128;2022-12-16T05:00:15;27.77;;;16.63;;
6378;SDS011;3222;48.858;10.128;2022-12-16T05:03:00;27.57;;;16.87;;
6378;SDS011;3222;48.858;10.128;2022-12-16T05:05:44;30.40;;;17.67;;
6378;SDS011;3222;48.858;10.128;2022-12-16T05:08:28;27.23;;;16.80;;
6378;SDS011;3222;48.858;10.128;2022-12-16T05:11:20;28.00;;;17.07;;
6378;SDS011;3222;48.858;10.128;2022-12-16T05:14:05;28.50;;;16.83;;
6378;SDS011;3222;48.858;10.128;2022-12-16T05:16:49;31.27;;;17.27;;
6378;SDS011;3222;48.858;10.128;2022-12-16T05:19:34;29.47;;;17.87;;
6378;SDS011;3222;48.858;10.128;2022-12-16T05:22:18;30.20;;;18.07;;
6378;SDS011;3222;48.858;10.128;2022-12-16T05:25:02;27.20;;;16.63;;
6378;SDS011;3222;48.858;10.128;2022-12-16T05:27:50;30.40;;;17.43;;
6378;SDS011;3222;48.858;10.128;2022-12-16T05:30:35;32.43;;;17.70;;
6378;SDS011;3222;48.858;10.128;2022-12-16T05:33:19;29.87;;;17.37;;
6378;SDS011;3222;48.858;10.128;2022-12-16T05:36:04;24.73;;;16.70;;
6378;SDS011;3222;48.858;10.128;2022-12-16T05:38:48;25.83;;;16.07;;
6378;SDS011;3222;48.858;10.128;2022-12-16T05:41:34;24.47;;;16.53;;
6378;SDS011;3222;48.858;10.128;2022-12-16T05:44:18;26.40;;;16.83;;
6378;SDS011;3222;48.858;10.128;2022-12-16T05:47:02;30.90;;;17.87;;
6378;SDS011;3222;48.858;10.128;2022-12-16T05:49:46;29.80;;;16.30;;
6378;SDS011;3222;48.858;10.128;2022-12-16T05:52:30;28.23;;;16.53;;
6378;SDS011;3222;48.858;10.128;2022-12-16T05:55:14;27.83;;;16.57;;
6378;SDS011;3222;48.858;10.128;2022-12-16T05:57:58;28.43;;;16.50;;
6378;SDS011;3222;48.858;10.128;2022-12-16T06:00:42;28.87;;;16.57;;
6378;SDS011;3222;48.858;10.128;2022-12-16T06:03:27;25.37;;;15.90;;
6378;SDS011;3222;48.858;10.128;2022-12-16T06:06:11;25.50;;;15.93;;
6378;SDS011;3222;48.858;10.128;2022-12-16T06:08:56;30.27;;;16.63;;
6378;SDS011;3222;48.858;10.128;2022-12-16T06:11:40;29.30;;;17.60;;
6378;SDS011;3222;48.858;10.128;2022-12-16T06:14:24;26.27;;;16.67;;
6378;SDS011;3222;48.858;10.128;2022-12-16T06:17:09;28.40;;;17.40;;
6378;SDS011;3222;48.858;10.128;2022-12-16T06:19:53;26.27;;;15.50;;
6378;SDS011;3222;48.858;10.128;2022-12-16T06:22:37;26.53;;;16.20;;
6378;SDS011;3222;48.858;10.128;2022-12-16T06:25:22;25.77;;;15.40;;
6378;SDS011;3222;48.858;10.128;2022-12-16T06:28:10;27.13;;;15.70;;
6378;SDS011;3222;48.858;10.128;2022-12-16T06:30:54;23.17;;;14.87;;
6378;SDS011;3222;48.858;10.128;2022-12-16T06:33:38;24.30;;;14.83;;
6378;SDS011;3222;48.858;10.128;2022-12-16T06:36:23;23.30;;;14.93;;
6378;SDS011;3222;48.858;10.128;2022-12-16T06:39:07;24.63;;;15.13;;
6378;SDS011;3222;48.858;10.128;2022-12-16T06:41:51;23.17;;;14.47;;
6378;SDS011;3222;48.858;10.128;2022-12-16T06:44:35;24.40;;;15.70;;
6378;SDS011;3222;48.858;10.128;2022-12-16T06:47:19;25.67;;;15.17;;
6378;SDS011;3222;48.858;10.128;2022-12-16T06:50:04;25.53;;;14.73;;
6378;SDS011;3222;48.858;10.128;2022-12-16T06:52:48;27.27;;;15.40;;
6378;SDS011;3222;48.858;10.128;2022-12-16T06:55:32;23.73;;;14.60;;
6378;SDS011;3222;48.858;10.128;2022-12-16T06:58:16;23.93;;;14.87;;
6378;SDS011;3222;48.858;10.128;2022-12-16T07:01:01;23.63;;;14.20;;
6378;SDS011;3222;48.858;10.128;2022-12-16T07:03:45;25.07;;;15.90;;
6378;SDS011;3222;48.858;10.128;2022-12-16T07:06:29;23.13;;;14.97;;
6378;SDS011;3222;48.858;10.128;2022-12-16T07:09:13;26.07;;;16.23;;
6378;SDS011;3222;48.858;10.128;2022-12-16T07:11:58;28.60;;;16.77;;
6378;SDS011;3222;48.858;10.128;2022-12-16T07:14:42;27.90;;;15.73;;
6378;SDS011;3222;48.858;10.128;2022-12-16T07:17:27;26.30;;;15.43;;
6378;SDS011;3222;48.858;10.128;2022-12-16T07:20:11;26.97;;;16.23;;
6378;SDS011;3222;48.858;10.128;2022-12-16T07:22:55;23.73;;;14.67;;
6378;SDS011;3222;48.858;10.128;2022-12-16T07:25:40;25.10;;;15.43;;
6378;SDS011;3222;48.858;10.128;2022-12-16T07:28:24;21.23;;;14.17;;
6378;SDS011;3222;48.858;10.128;2022-12-16T07:31:08;22.73;;;15.03;;
6378;SDS011;3222;48.858;10.128;2022-12-16T07:33:52;22.77;;;15.30;;
6378;SDS011;3222;48.858;10.128;2022-12-16T07:36:37;26.97;;;15.60;;
6378;SDS011;3222;48.858;10.128;2022-12-16T07:39:21;30.10;;;16.63;;
6378;SDS011;3222;48.858;10.128;2022-12-16T07:42:05;25.60;;;15.87;;
6378;SDS011;3222;48.858;10.128;2022-12-16T07:44:54;28.07;;;16.43;;
6378;SDS011;3222;48.858;10.128;2022-12-16T07:47:45;26.00;;;16.63;;
6378;SDS011;3222;48.858;10.128;2022-12-16T07:50:33;25.53;;;16.27;;
6378;SDS011;3222;48.858;10.128;2022-12-16T07:53:17;25.10;;;15.47;;
6378;SDS011;3222;48.858;10.128;2022-12-16T07:56:02;24.33;;;15.60;;
6378;SDS011;3222;48.858;10.128;2022-12-16T07:58:46;33.80;;;19.97;;
6378;SDS011;3222;48.858;10.128;2022-12-16T08:01:30;29.83;;;15.87;;
6378;SDS011;3222;48.858;10.128;2022-12-16T08:04:15;27.63;;;17.20;;
6378;SDS011;3222;48.858;10.128;2022-12-16T08:06:59;29.37;;;17.47;;
6378;SDS011;3222;48.858;10.128;2022-12-16T08:09:43;28.17;;;16.13;;
6378;SDS011;3222;48.858;10.128;2022-12-16T08:12:28;29.17;;;17.50;;
6378;SDS011;3222;48.858;10.128;2022-12-16T08:15:12;31.43;;;19.07;;
6378;SDS011;3222;48.858;10.128;2022-12-16T08:17:57;26.93;;;14.83;;
6378;SDS011;3222;48.858;10.128;2022-12-16T08:20:41;23.80;;;15.50;;
6378;SDS011;3222;48.858;10.128;2022-12-16T08:23:25;22.10;;;15.03;;
6378;SDS011;3222;48.858;10.128;2022-12-16T08:26:09;25.17;;;15.77;;
6378;SDS011;3222;48.858;10.128;2022-12-16T08:28:53;25.40;;;15.50;;
6378;SDS011;3222;48.858;10.128;2022-12-16T08:31:38;29.20;;;13.83;;
6378;SDS011;3222;48.858;10.128;2022-12-16T08:34:22;26.83;;;15.90;;
6378;SDS011;3222;48.858;10.128;2022-12-16T08:37:06;23.37;;;14.60;;
6378;SDS011;3222;48.858;10.128;2022-12-16T08:39:51;19.47;;;12.87;;
6378;SDS011;3222;48.858;10.128;2022-12-16T08:42:35;17.67;;;12.33;;
6378;SDS011;3222;48.858;10.128;2022-12-16T08:45:20;20.73;;;11.83;;
6378;SDS011;3222;48.858;10.128;2022-12-16T08:48:04;17.13;;;11.13;;
6378;SDS011;3222;48.858;10.128;2022-12-16T08:50:48;18.80;;;10.90;;
6378;SDS011;3222;48.858;10.128;2022-12-16T08:53:32;22.53;;;13.53;;
6378;SDS011;3222;48.858;10.128;2022-12-16T08:56:17;21.43;;;12.90;;
6378;SDS011;3222;48.858;10.128;2022-12-16T08:59:01;25.40;;;14.90;;
6378;SDS011;3222;48.858;10.128;2022-12-16T09:01:46;26.33;;;14.73;;
6378;SDS011;3222;48.858;10.128;2022-12-16T09:04:30;23.27;;;14.77;;
6378;SDS011;3222;48.858;10.128;2022-12-16T09:07:14;24.27;;;15.27;;
6378;SDS011;3222;48.858;10.128;2022-12-16T09:09:58;23.83;;;14.30;;
6378;SDS011;3222;48.858;10.128;2022-12-16T09:12:43;24.07;;;14.67;;
6378;SDS011;3222;48.858;10.128;2022-12-16T09:15:27;27.60;;;15.97;;
6378;SDS011;3222;48.858;10.128;2022-12-16T09:18:11;26.93;;;16.50;;
6378;SDS011;3222;48.858;10.128;2022-12-16T09:20:56;22.00;;;15.00;;
6378;SDS011;3222;48.858;10.128;2022-12-16T09:23:41;30.90;;;18.87;;
6378;SDS011;3222;48.858;10.128;2022-12-16T09:26:26;23.90;;;15.20;;
6378;SDS011;3222;48.858;10.128;2022-12-16T09:29:11;26.33;;;16.17;;
6378;SDS011;3222;48.858;10.128;2022-12-16T09:31:56;20.73;;;13.30;;
6378;SDS011;3222;48.858;10.128;2022-12-16T09:34:40;20.23;;;13.53;;
6378;SDS011;3222;48.858;10.128;2022-12-16T09:37:24;20.97;;;12.87;;
6378;SDS011;3222;48.858;10.128;2022-12-16T09:40:10;20.77;;;11.83;;
6378;SDS011;3222;48.858;10.128;2022-12-16T09:46:01;17.70;;;11.60;;
6378;SDS011;3222;48.858;10.128;2022-12-16T09:51:45;16.60;;;11.50;;
6378;SDS011;3222;48.858;10.128;2022-12-16T09:54:50;19.77;;;12.03;;
6378;SDS011;3222;48.858;10.128;2022-12-16T09:57:34;19.73;;;13.23;;
6378;SDS011;3222;48.858;10.128;2022-12-16T10:00:21;22.73;;;14.77;;
6378;SDS011;3222;48.858;10.128;2022-12-16T10:03:15;18.00;;;12.00;;
6378;SDS011;3222;48.858;10.128;2022-12-16T10:12:03;19.27;;;12.57;;
6378;SDS011;3222;48.858;10.128;2022-12-16T10:18:40;17.13;;;10.77;;
6378;SDS011;3222;48.858;10.128;2022-12-16T10:24:56;16.07;;;10.07;;
6378;SDS011;3222;48.858;10.128;2022-12-16T10:27:50;13.50;;;9.83;;
6378;SDS011;3222;48.858;10.128;2022-12-16T10:30:41;18.27;;;11.10;;
6378;SDS011;3222;48.858;10.128;2022-12-16T10:33:26;14.23;;;10.20;;
6378;SDS011;3222;48.858;10.128;2022-12-16T10:36:13;15.00;;;10.77;;
6378;SDS011;3222;48.858;10.128;2022-12-16T10:39:01;18.27;;;11.30;;
6378;SDS011;3222;48.858;10.128;2022-12-16T10:41:54;13.13;;;9.50;;
6378;SDS011;3222;48.858;10.128;2022-12-16T10:44:54;13.60;;;9.67;;
6378;SDS011;3222;48.858;10.128;2022-12-16T10:47:43;15.93;;;10.83;;
6378;SDS011;3222;48.858;10.128;2022-12-16T10:50:27;14.90;;;10.67;;
6378;SDS011;3222;48.858;10.128;2022-12-16T10:53:16;14.73;;;10.63;;
6378;SDS011;3222;48.858;10.128;2022-12-16T10:59:00;14.47;;;10.30;;
6378;SDS011;3222;48.858;10.128;2022-12-16T11:01:55;15.10;;;9.90;;
6378;SDS011;3222;48.858;10.128;2022-12-16T11:04:45;13.63;;;9.97;;
6378;SDS011;3222;48.858;10.128;2022-12-16T11:13:31;12.53;;;9.07;;
6378;SDS011;3222;48.858;10.128;2022-12-16T11:16:21;12.60;;;9.13;;
6378;SDS011;3222;48.858;10.128;2022-12-16T11:19:23;11.53;;;8.57;;
6378;SDS011;3222;48.858;10.128;2022-12-16T11:22:13;13.37;;;8.83;;
6378;SDS011;3222;48.858;10.128;2022-12-16T11:27:48;13.73;;;8.80;;
6378;SDS011;3222;48.858;10.128;2022-12-16T11:30:32;13.17;;;8.90;;
6378;SDS011;3222;48.858;10.128;2022-12-16T11:33:24;23.73;;;12.43;;
6378;SDS011;3222;48.858;10.128;2022-12-16T11:36:13;17.73;;;11.23;;
6378;SDS011;3222;48.858;10.128;2022-12-16T11:39:03;18.33;;;11.30;;
6378;SDS011;3222;48.858;10.128;2022-12-16T11:41:49;19.53;;;11.13;;
6378;SDS011;3222;48.858;10.128;2022-12-16T11:44:38;19.50;;;10.97;;
6378;SDS011;3222;48.858;10.128;2022-12-16T11:47:33;16.17;;;9.47;;
6378;SDS011;3222;48.858;10.128;2022-12-16T11:50:25;16.70;;;9.57;;
6378;SDS011;3222;48.858;10.128;2022-12-16T11:56:19;13.50;;;8.67;;
6378;SDS011;3222;48.858;10.128;2022-12-16T11:59:11;12.20;;;8.23;;
6378;SDS011;3222;48.858;10.128;2022-12-16T12:02:27;11.80;;;8.27;;
6378;SDS011;3222;48.858;10.128;2022-12-16T12:05:21;12.53;;;8.47;;
6378;SDS011;3222;48.858;10.128;2022-12-16T12:17:13;12.67;;;8.40;;
6378;SDS011;3222;48.858;10.128;2022-12-16T12:20:08;9.57;;;7.13;;
6378;SDS011;3222;48.858;10.128;2022-12-16T12:23:20;11.43;;;7.57;;
6378;SDS011;3222;48.858;10.128;2022-12-16T12:26:14;15.93;;;7.83;;
6378;SDS011;3222;48.858;10.128;2022-12-16T12:32:19;10.73;;;6.97;;
6378;SDS011;3222;48.858;10.128;2022-12-16T12:38:56;9.60;;;7.40;;
6378;SDS011;3222;48.858;10.128;2022-12-16T12:42:00;11.20;;;7.47;;
6378;SDS011;3222;48.858;10.128;2022-12-16T12:47:51;12.50;;;9.13;;
6378;SDS011;3222;48.858;10.128;2022-12-16T12:50:58;10.97;;;7.93;;
6378;SDS011;3222;48.858;10.128;2022-12-16T12:54:14;10.83;;;7.23;;
6378;SDS011;3222;48.858;10.128;2022-12-16T12:57:08;10.23;;;7.47;;
6378;SDS011;3222;48.858;10.128;2022-12-16T13:00:00;19.13;;;10.53;;
6378;SDS011;3222;48.858;10.128;2022-12-16T13:03:02;15.17;;;9.73;;
6378;SDS011;3222;48.858;10.128;2022-12-16T13:06:03;13.67;;;9.13;;
6378;SDS011;3222;48.858;10.128;2022-12-16T13:11:32;10.03;;;7.63;;
6378;SDS011;3222;48.858;10.128;2022-12-16T13:17:17;11.03;;;7.63;;
6378;SDS011;3222;48.858;10.128;2022-12-16T13:20:05;8.43;;;6.97;;
6378;SDS011;3222;48.858;10.128;2022-12-16T13:26:11;10.20;;;6.80;;
6378;SDS011;3222;48.858;10.128;2022-12-16T13:29:05;11.00;;;6.33;;
6378;SDS011;3222;48.858;10.128;2022-12-16T13:35:01;11.43;;;7.33;;
6378;SDS011;3222;48.858;10.128;2022-12-16T13:37:56;10.60;;;6.77;;
6378;SDS011;3222;48.858;10.128;2022-12-16T13:41:00;9.90;;;6.43;;
6378;SDS011;3222;48.858;10.128;2022-12-16T13:43:56;9.40;;;5.97;;
6378;SDS011;3222;48.858;10.128;2022-12-16T13:46:45;9.53;;;6.60;;
6378;SDS011;3222;48.858;10.128;2022-12-16T13:53:06;9.90;;;7.30;;
6378;SDS011;3222;48.858;10.128;2022-12-16T13:55:47;12.60;;;7.30;;
6378;SDS011;3222;48.858;10.128;2022-12-16T14:01:52;11.20;;;6.43;;
6378;SDS011;3222;48.858;10.128;2022-12-16T14:04:47;10.70;;;6.53;;
6378;SDS011;3222;48.858;10.128;2022-12-16T14:07:38;8.80;;;6.50;;
6378;SDS011;3222;48.858;10.128;2022-12-16T14:13:16;8.07;;;6.47;;
6378;SDS011;3222;48.858;10.128;2022-12-16T14:25:33;8.63;;;5.90;;
6378;SDS011;3222;48.858;10.128;2022-12-16T14:28:28;8.47;;;5.70;;
6378;SDS011;3222;48.858;10.128;2022-12-16T14:31:23;9.07;;;6.33;;
6378;SDS011;3222;48.858;10.128;2022-12-16T14:34:15;8.17;;;6.67;;
6378;SDS011;3222;48.858;10.128;2022-12-16T14:39:59;9.00;;;6.20;;
6378;SDS011;3222;48.858;10.128;2022-12-16T14:42:51;10.70;;;6.90;;
6378;SDS011;3222;48.858;10.128;2022-12-16T14:45:36;8.40;;;6.83;;
6378;SDS011;3222;48.858;10.128;2022-12-16T14:48:27;12.67;;;6.73;;
6378;SDS011;3222;48.858;10.128;2022-12-16T14:57:00;6.57;;;5.90;;
6378;SDS011;3222;48.858;10.128;2022-12-16T14:59:44;8.50;;;6.37;;
6378;SDS011;3222;48.858;10.128;2022-12-16T15:02:37;11.83;;;7.13;;
6378;SDS011;3222;48.858;10.128;2022-12-16T15:05:30;8.83;;;6.47;;
6378;SDS011;3222;48.858;10.128;2022-12-16T15:08:17;9.87;;;6.07;;
6378;SDS011;3222;48.858;10.128;2022-12-16T15:11:03;10.87;;;6.53;;
6378;SDS011;3222;48.858;10.128;2022-12-16T15:13:51;10.30;;;6.90;;
6378;SDS011;3222;48.858;10.128;2022-12-16T15:16:38;11.33;;;7.10;;
6378;SDS011;3222;48.858;10.128;2022-12-16T15:19:24;11.67;;;8.00;;
6378;SDS011;3222;48.858;10.128;2022-12-16T15:22:15;20.53;;;10.40;;
6378;SDS011;3222;48.858;10.128;2022-12-16T15:24:59;15.70;;;8.60;;
6378;SDS011;3222;48.858;10.128;2022-12-16T15:27:51;17.67;;;10.20;;
6378;SDS011;3222;48.858;10.128;2022-12-16T15:30:38;16.47;;;9.63;;
6378;SDS011;3222;48.858;10.128;2022-12-16T15:33:25;13.60;;;8.53;;
6378;SDS011;3222;48.858;10.128;2022-12-16T15:39:08;16.33;;;8.50;;
6378;SDS011;3222;48.858;10.128;2022-12-16T15:41:54;11.53;;;6.97;;
6378;SDS011;3222;48.858;10.128;2022-12-16T15:44:39;9.37;;;6.53;;
6378;SDS011;3222;48.858;10.128;2022-12-16T15:47:32;8.20;;;6.27;;
6378;SDS011;3222;48.858;10.128;2022-12-16T15:50:19;9.30;;;6.60;;
6378;SDS011;3222;48.858;10.128;2022-12-16T15:59:31;9.87;;;6.77;;
6378;SDS011;3222;48.858;10.128;2022-12-16T16:05:15;8.43;;;6.80;;
6378;SDS011;3222;48.858;10.128;2022-12-16T16:08:02;10.90;;;6.07;;
6378;SDS011;3222;48.858;10.128;2022-12-16T16:10:46;10.20;;;6.67;;
6378;SDS011;3222;48.858;10.128;2022-12-16T16:13:30;9.63;;;7.10;;
6378;SDS011;3222;48.858;10.128;2022-12-16T16:16:15;10.70;;;6.83;;
6378;SDS011;3222;48.858;10.128;2022-12-16T16:18:59;9.00;;;6.30;;
6378;SDS011;3222;48.858;10.128;2022-12-16T16:21:44;9.17;;;6.77;;
6378;SDS011;3222;48.858;10.128;2022-12-16T16:24:28;8.50;;;6.17;;
6378;SDS011;3222;48.858;10.128;2022-12-16T16:27:13;7.30;;;5.80;;
6378;SDS011;3222;48.858;10.128;2022-12-16T16:29:58;13.73;;;6.80;;
6378;SDS011;3222;48.858;10.128;2022-12-16T16:32:43;9.07;;;6.50;;
6378;SDS011;3222;48.858;10.128;2022-12-16T16:35:29;8.20;;;6.40;;
6378;SDS011;3222;48.858;10.128;2022-12-16T16:38:15;10.60;;;7.00;;
6378;SDS011;3222;48.858;10.128;2022-12-16T16:40:59;9.07;;;6.83;;
6378;SDS011;3222;48.858;10.128;2022-12-16T16:43:43;10.10;;;7.20;;
6378;SDS011;3222;48.858;10.128;2022-12-16T16:46:30;9.67;;;7.53;;
6378;SDS011;3222;48.858;10.128;2022-12-16T16:49:19;15.47;;;8.30;;
6378;SDS011;3222;48.858;10.128;2022-12-16T16:52:27;11.30;;;8.13;;
6378;SDS011;3222;48.858;10.128;2022-12-16T16:55:15;11.20;;;8.13;;
6378;SDS011;3222;48.858;10.128;2022-12-16T16:58:44;11.23;;;8.53;;
6378;SDS011;3222;48.858;10.128;2022-12-16T17:01:14;11.53;;;8.20;;
6378;SDS011;3222;48.858;10.128;2022-12-16T17:03:59;13.30;;;8.73;;
6378;SDS011;3222;48.858;10.128;2022-12-16T17:06:44;11.77;;;8.37;;
6378;SDS011;3222;48.858;10.128;2022-12-16T17:09:28;13.43;;;9.07;;
6378;SDS011;3222;48.858;10.128;2022-12-16T17:12:19;14.70;;;8.83;;
6378;SDS011;3222;48.858;10.128;2022-12-16T17:15:12;12.67;;;8.53;;
6378;SDS011;3222;48.858;10.128;2022-12-16T17:18:07;12.90;;;8.40;;
6378;SDS011;3222;48.858;10.128;2022-12-16T17:20:52;11.03;;;8.30;;
6378;SDS011;3222;48.858;10.128;2022-12-16T17:23:37;12.87;;;8.07;;
6378;SDS011;3222;48.858;10.128;2022-12-16T17:26:22;12.97;;;9.17;;
6378;SDS011;3222;48.858;10.128;2022-12-16T17:29:07;12.17;;;8.40;;
6378;SDS011;3222;48.858;10.128;2022-12-16T17:32:05;12.60;;;8.53;;
6378;SDS011;3222;48.858;10.128;2022-12-16T17:34:49;11.30;;;8.10;;
6378;SDS011;3222;48.858;10.128;2022-12-16T17:37:34;16.33;;;9.33;;
6378;SDS011;3222;48.858;10.128;2022-12-16T17:40:18;16.23;;;9.30;;
6378;SDS011;3222;48.858;10.128;2022-12-16T17:43:03;21.67;;;11.57;;
6378;SDS011;3222;48.858;10.128;2022-12-16T17:45:54;23.23;;;11.10;;
6378;SDS011;3222;48.858;10.128;2022-12-16T17:48:42;29.50;;;12.67;;
6378;SDS011;3222;48.858;10.128;2022-12-16T17:51:27;35.17;;;14.87;;
6378;SDS011;3222;48.858;10.128;2022-12-16T17:54:11;23.60;;;11.93;;
6378;SDS011;3222;48.858;10.128;2022-12-16T17:56:55;16.03;;;10.87;;
6378;SDS011;3222;48.858;10.128;2022-12-16T17:59:40;17.90;;;11.33;;
6378;SDS011;3222;48.858;10.128;2022-12-16T18:02:24;17.17;;;11.33;;
6378;SDS011;3222;48.858;10.128;2022-12-16T18:05:09;15.50;;;11.47;;
6378;SDS011;3222;48.858;10.128;2022-12-16T18:07:53;16.63;;;10.17;;
6378;SDS011;3222;48.858;10.128;2022-12-16T18:10:37;15.80;;;10.40;;
6378;SDS011;3222;48.858;10.128;2022-12-16T18:13:21;13.07;;;9.40;;
6378;SDS011;3222;48.858;10.128;2022-12-16T18:16:06;12.53;;;8.50;;
6378;SDS011;3222;48.858;10.128;2022-12-16T18:18:50;11.17;;;8.37;;
6378;SDS011;3222;48.858;10.128;2022-12-16T18:21:34;12.20;;;8.40;;
6378;SDS011;3222;48.858;10.128;2022-12-16T18:24:19;13.40;;;8.90;;
6378;SDS011;3222;48.858;10.128;2022-12-16T18:27:03;11.73;;;8.77;;
6378;SDS011;3222;48.858;10.128;2022-12-16T18:29:47;9.80;;;7.43;;
6378;SDS011;3222;48.858;10.128;2022-12-16T18:32:32;13.67;;;8.77;;
6378;SDS011;3222;48.858;10.128;2022-12-16T18:35:16;9.63;;;7.57;;
6378;SDS011;3222;48.858;10.128;2022-12-16T18:38:01;13.17;;;8.47;;